Time;durP1;ratioP1;P1;durP2;ratioP2;P2;SDS_P1;SDS_P2;PMS_P1;PMS_P2;Temp;Humidity;BMP_temperature;BMP_pressure;BME280_temperature;BME280_humidity;BME280_pressure;Samples;Min_cycle;Max_cycle;Signal;HPM_P1;HPM_P2
2022/09/15 00:00:25;;;;;;;;;13.00;9.75;;;;;;;;5021368;28;8917;-80
2022/09/15 00:02:53;;;;;;;;;10.00;10.00;;;;;;;;5009781;28;8999;-80
2022/09/15 00:05:21;;;;;;;;;14.25;11.75;;;;;;;;5018140;28;8992;-80
2022/09/15 00:07:49;;;;;;;;;16.25;12.25;;;;;;;;5022139;28;9716;-80
2022/09/15 00:10:16;;;;;;;;;12.25;11.50;;;;;;;;5022837;28;8868;-80
2022/09/15 00:12:43;;;;;;;;;13.75;13.00;;;;;;;;5021628;28;8865;-79
2022/09/15 00:15:13;;;;;;;;;18.50;16.50;;;;;;;;5022944;28;8873;-79
2022/09/15 00:17:42;;;;;;;;;17.00;13.75;;;;;;;;5021476;28;8877;-79
2022/09/15 00:20:10;;;;;;;;;19.25;19.00;;;;;;;;5026322;28;8849;-80
2022/09/15 00:22:37;;;;;;;;;19.50;15.50;;;;;;;;5014481;28;8992;-79
2022/09/15 00:25:05;;;;;;;;;20.75;20.75;;;;;;;;5024857;28;8877;-78
2022/09/15 00:27:33;;;;;;;;;26.25;25.25;;;;;;;;5027079;28;8884;-80
2022/09/15 00:30:00;;;;;;;;;28.75;26.25;;;;;;;;5025784;28;8864;-79
2022/09/15 00:32:27;;;;;;;;;32.00;29.75;;;;;;;;5025895;28;8843;-79
2022/09/15 00:34:56;;;;;;;;;36.50;33.00;;;;;;;;5024768;28;8900;-80
2022/09/15 00:37:24;;;;;;;;;47.75;38.00;;;;;;;;5027030;28;8899;-79
2022/09/15 00:39:52;;;;;;;;;49.00;36.50;;;;;;;;5026444;28;9606;-81
2022/09/15 00:42:22;;;;;;;;;41.00;35.50;;;;;;;;5025278;28;8864;-79
2022/09/15 00:44:53;;;;;;;;;40.50;34.00;;;;;;;;5026741;28;9001;-79
2022/09/15 00:47:24;;;;;;;;;38.75;35.50;;;;;;;;5025378;28;8892;-79
2022/09/15 00:49:57;;;;;;;;;41.25;35.50;;;;;;;;5025974;28;8884;-82
2022/09/15 00:52:30;;;;;;;;;48.25;36.50;;;;;;;;5019933;28;8894;-78
2022/09/15 00:55:01;;;;;;;;;38.75;35.00;;;;;;;;5046953;28;8869;-80
2022/09/15 00:57:41;;;;;;;;;44.25;38.00;;;;;;;;5026397;28;8876;-79
2022/09/15 01:00:11;;;;;;;;;50.75;41.00;;;;;;;;5024554;28;8881;-79
2022/09/15 01:02:41;;;;;;;;;50.25;40.50;;;;;;;;5024624;28;9098;-78
2022/09/15 01:05:12;;;;;;;;;47.50;38.00;;;;;;;;5024926;28;8868;-79
2022/09/15 01:07:43;;;;;;;;;45.75;38.00;;;;;;;;5026050;28;8877;-78
2022/09/15 01:10:14;;;;;;;;;45.50;39.25;;;;;;;;5015436;28;8849;-78
2022/09/15 01:12:41;;;;;;;;;52.75;37.50;;;;;;;;5025760;28;8947;-80
2022/09/15 01:15:09;;;;;;;;;36.25;31.50;;;;;;;;5026298;28;8888;-80
2022/09/15 01:17:46;;;;;;;;;44.75;35.50;;;;;;;;5024131;28;8876;-79
2022/09/15 01:20:57;;;;;;;;;37.50;34.25;;;;;;;;5025071;28;8903;-80
2022/09/15 01:23:53;;;;;;;;;38.00;34.25;;;;;;;;5025873;28;8898;-78
2022/09/15 01:26:43;;;;;;;;;44.25;38.25;;;;;;;;4995469;28;8859;-78
2022/09/15 01:29:51;;;;;;;;;47.00;39.25;;;;;;;;5022425;28;8892;-78
2022/09/15 01:35:18;;;;;;;;;43.25;35.50;;;;;;;;5004517;28;8860;-78
2022/09/15 01:37:50;;;;;;;;;42.00;35.00;;;;;;;;4989060;28;8864;-80
2022/09/15 01:40:19;;;;;;;;;36.75;33.50;;;;;;;;5004712;28;8868;-78
2022/09/15 01:42:49;;;;;;;;;42.25;35.50;;;;;;;;5005097;28;10243;-81
2022/09/15 01:45:20;;;;;;;;;41.50;34.00;;;;;;;;5001902;28;8832;-79
2022/09/15 01:47:52;;;;;;;;;43.50;34.50;;;;;;;;5004667;28;8922;-79
2022/09/15 01:50:23;;;;;;;;;35.00;32.50;;;;;;;;5005721;28;8868;-80
2022/09/15 01:52:52;;;;;;;;;35.00;30.00;;;;;;;;5004645;28;8876;-79
2022/09/15 01:55:23;;;;;;;;;40.00;32.25;;;;;;;;4987999;28;8899;-79
2022/09/15 01:57:53;;;;;;;;;32.25;30.50;;;;;;;;4997052;28;8946;-80
2022/09/15 02:00:21;;;;;;;;;33.75;29.00;;;;;;;;5003403;28;8880;-79
2022/09/15 02:02:55;;;;;;;;;31.75;30.00;;;;;;;;4987866;28;8849;-80
2022/09/15 02:05:25;;;;;;;;;25.50;23.75;;;;;;;;5003811;28;8857;-79
2022/09/15 02:08:00;;;;;;;;;29.50;29.50;;;;;;;;5006341;28;8868;-80
2022/09/15 02:10:32;;;;;;;;;35.50;30.75;;;;;;;;5004146;28;9622;-80
2022/09/15 02:13:05;;;;;;;;;30.25;26.25;;;;;;;;5005407;28;8849;-81
2022/09/15 02:15:37;;;;;;;;;34.75;30.50;;;;;;;;5005287;28;8856;-80
2022/09/15 02:18:09;;;;;;;;;32.00;28.75;;;;;;;;5003553;28;8880;-80
2022/09/15 02:20:42;;;;;;;;;29.75;28.00;;;;;;;;5000161;28;9594;-81
2022/09/15 02:23:15;;;;;;;;;28.50;26.75;;;;;;;;5003644;28;8895;-80
2022/09/15 02:25:45;;;;;;;;;28.00;26.50;;;;;;;;5005087;28;8935;-80
2022/09/15 02:28:14;;;;;;;;;34.25;30.25;;;;;;;;5004265;28;9638;-78
2022/09/15 02:30:43;;;;;;;;;30.50;29.00;;;;;;;;5003535;28;8793;-79
2022/09/15 02:33:14;;;;;;;;;33.25;28.75;;;;;;;;4987504;28;8865;-78
2022/09/15 02:35:42;;;;;;;;;33.00;29.75;;;;;;;;5002856;28;8916;-78
2022/09/15 02:38:10;;;;;;;;;30.25;29.00;;;;;;;;5005255;28;8942;-79
2022/09/15 02:40:40;;;;;;;;;37.50;31.75;;;;;;;;5002368;28;8868;-78
2022/09/15 02:43:11;;;;;;;;;27.75;23.50;;;;;;;;5004736;28;8872;-79
2022/09/15 02:45:38;;;;;;;;;30.25;28.00;;;;;;;;5003708;28;8888;-77
2022/09/15 02:48:08;;;;;;;;;24.00;22.75;;;;;;;;5004009;28;8869;-78
2022/09/15 02:50:37;;;;;;;;;24.25;23.75;;;;;;;;5003776;28;8836;-77
2022/09/15 02:53:04;;;;;;;;;26.75;25.75;;;;;;;;5001105;28;8868;-78
2022/09/15 02:55:31;;;;;;;;;19.25;19.25;;;;;;;;5004158;28;8864;-77
2022/09/15 02:58:00;;;;;;;;;27.50;25.50;;;;;;;;5003001;28;8911;-78
2022/09/15 03:00:28;;;;;;;;;25.75;25.25;;;;;;;;5003916;28;8814;-80
2022/09/15 03:02:55;;;;;;;;;29.75;27.00;;;;;;;;5002999;28;8884;-79
2022/09/15 03:05:24;;;;;;;;;28.50;26.75;;;;;;;;5004037;28;8946;-78
2022/09/15 03:07:53;;;;;;;;;25.50;23.00;;;;;;;;5003992;28;8862;-78
2022/09/15 03:10:21;;;;;;;;;27.25;23.25;;;;;;;;5003716;28;8868;-77
2022/09/15 03:12:50;;;;;;;;;24.50;21.25;;;;;;;;5004707;28;8894;-79
2022/09/15 03:15:21;;;;;;;;;27.50;25.00;;;;;;;;5003673;28;8856;-80
2022/09/15 03:17:49;;;;;;;;;32.75;28.75;;;;;;;;5004078;28;9661;-80
2022/09/15 03:20:21;;;;;;;;;29.00;23.00;;;;;;;;5002796;28;8900;-81
2022/09/15 03:22:50;;;;;;;;;26.00;25.50;;;;;;;;4984106;28;8864;-81
2022/09/15 03:25:18;;;;;;;;;20.75;18.75;;;;;;;;4999355;28;8856;-81
2022/09/15 03:27:46;;;;;;;;;23.25;22.25;;;;;;;;5002986;28;8865;-78
2022/09/15 03:30:14;;;;;;;;;23.75;22.50;;;;;;;;5002925;28;8974;-81
2022/09/15 03:32:42;;;;;;;;;22.00;21.75;;;;;;;;5002259;28;8887;-81
2022/09/15 03:35:10;;;;;;;;;26.00;24.50;;;;;;;;5004246;28;8884;-81
2022/09/15 03:37:37;;;;;;;;;21.00;21.00;;;;;;;;5003041;28;8856;-79
2022/09/15 03:40:06;;;;;;;;;24.25;22.50;;;;;;;;5002643;28;8991;-81
2022/09/15 03:42:34;;;;;;;;;26.25;23.75;;;;;;;;5001929;28;8876;-80
2022/09/15 03:45:02;;;;;;;;;18.00;14.50;;;;;;;;4984764;28;8887;-81
2022/09/15 03:47:29;;;;;;;;;19.25;17.50;;;;;;;;5003734;28;9327;-81
2022/09/15 03:49:57;;;;;;;;;18.25;17.00;;;;;;;;4997513;28;9638;-81
2022/09/15 03:52:24;;;;;;;;;14.50;13.75;;;;;;;;5003008;28;8884;-79
2022/09/15 03:54:52;;;;;;;;;16.50;16.25;;;;;;;;5002480;28;8971;-79
2022/09/15 03:57:19;;;;;;;;;16.75;14.75;;;;;;;;5003118;28;8865;-77
2022/09/15 03:59:48;;;;;;;;;18.00;14.75;;;;;;;;5002371;28;8874;-80
2022/09/15 04:02:15;;;;;;;;;23.50;23.50;;;;;;;;5001965;28;8800;-79
2022/09/15 04:04:42;;;;;;;;;20.75;17.75;;;;;;;;5003767;28;8906;-82
2022/09/15 04:07:10;;;;;;;;;24.75;21.50;;;;;;;;5002004;28;8876;-78
2022/09/15 04:09:37;;;;;;;;;20.50;20.50;;;;;;;;5003879;28;8916;-78
2022/09/15 04:12:05;;;;;;;;;24.50;23.00;;;;;;;;5001710;28;8890;-79
2022/09/15 04:14:33;;;;;;;;;22.00;21.00;;;;;;;;5003500;28;8971;-79
2022/09/15 04:17:01;;;;;;;;;22.75;21.75;;;;;;;;5000155;28;8856;-76
2022/09/15 04:19:29;;;;;;;;;17.75;16.50;;;;;;;;4985188;28;8888;-77
2022/09/15 04:21:56;;;;;;;;;29.75;25.50;;;;;;;;5002422;28;8860;-80
2022/09/15 04:24:25;;;;;;;;;20.50;20.50;;;;;;;;5001630;28;8892;-78
2022/09/15 04:26:55;;;;;;;;;29.75;26.50;;;;;;;;5003098;28;8872;-78
2022/09/15 04:29:23;;;;;;;;;31.00;28.25;;;;;;;;5002524;28;8888;-80
2022/09/15 04:31:51;;;;;;;;;27.25;24.75;;;;;;;;5002259;28;8982;-79
2022/09/15 04:34:20;;;;;;;;;25.00;22.25;;;;;;;;5001823;28;9610;-78
2022/09/15 04:36:47;;;;;;;;;22.00;20.25;;;;;;;;5002579;28;8910;-81
2022/09/15 04:39:15;;;;;;;;;27.25;24.00;;;;;;;;5002833;28;8868;-81
2022/09/15 04:41:42;;;;;;;;;27.75;24.50;;;;;;;;5001578;28;8892;-78
2022/09/15 04:44:09;;;;;;;;;24.50;22.75;;;;;;;;5003218;28;8856;-79
2022/09/15 04:46:37;;;;;;;;;29.00;27.67;;;;;;;;4999664;28;8894;-77
2022/09/15 04:49:04;;;;;;;;;24.25;23.00;;;;;;;;4990275;28;8975;-82
2022/09/15 04:51:33;;;;;;;;;25.00;25.00;;;;;;;;5001525;28;8872;-79
2022/09/15 04:54:00;;;;;;;;;39.33;30.00;;;;;;;;5002352;28;8981;-78
2022/09/15 04:56:27;;;;;;;;;31.50;24.50;;;;;;;;5001950;28;9767;-77
2022/09/15 04:58:56;;;;;;;;;20.50;20.50;;;;;;;;5002688;28;8887;-77
2022/09/15 05:01:25;;;;;;;;;33.33;27.00;;;;;;;;5001788;28;8788;-80
2022/09/15 05:03:53;;;;;;;;;29.00;29.00;;;;;;;;5000718;28;8952;-79
2022/09/15 05:06:23;;;;;;;;;28.33;26.67;;;;;;;;5006422;28;9132;-77
2022/09/15 05:08:54;;;;;;;;;31.67;28.33;;;;;;;;5003408;28;9111;-79
2022/09/15 05:11:22;;;;;;;;;29.33;25.67;;;;;;;;5005380;28;9186;-78
2022/09/15 05:13:49;;;;;;;;;28.67;25.67;;;;;;;;5005090;28;9193;-76
2022/09/15 05:16:18;;;;;;;;;31.33;26.67;;;;;;;;5004790;28;9205;-81
2022/09/15 05:18:47;;;;;;;;;41.67;29.67;;;;;;;;5006530;28;9935;-76
2022/09/15 05:21:17;;;;;;;;;28.00;26.33;;;;;;;;5004169;28;9309;-77
2022/09/15 05:23:45;;;;;;;;;32.33;30.33;;;;;;;;5006505;28;9188;-83
2022/09/15 05:26:15;;;;;;;;;26.33;23.00;;;;;;;;4997334;28;9202;-78
2022/09/15 05:28:43;;;;;;;;;34.00;27.00;;;;;;;;5002161;28;9053;-76
2022/09/15 05:31:16;;;;;;;;;29.67;29.33;;;;;;;;5007671;28;9159;-76
2022/09/15 05:33:43;;;;;;;;;36.33;31.33;;;;;;;;5002267;28;10046;-76
2022/09/15 05:36:13;;;;;;;;;32.33;30.67;;;;;;;;5005587;28;9825;-75
2022/09/15 05:38:44;;;;;;;;;28.00;25.67;;;;;;;;4997684;28;9193;-76
2022/09/15 05:41:16;;;;;;;;;30.67;28.67;;;;;;;;4992302;28;9039;-75
2022/09/15 05:43:44;;;;;;;;;31.33;26.33;;;;;;;;5001686;28;9037;-76
2022/09/15 05:46:11;;;;;;;;;29.00;28.33;;;;;;;;5005348;28;9818;-75
2022/09/15 05:48:39;;;;;;;;;30.33;28.67;;;;;;;;5003555;28;9141;-84
2022/09/15 05:51:06;;;;;;;;;22.33;21.00;;;;;;;;5004308;28;9062;-73
2022/09/15 05:53:34;;;;;;;;;36.00;28.33;;;;;;;;5004719;28;9030;-79
2022/09/15 05:56:04;;;;;;;;;25.33;24.00;;;;;;;;5001575;28;8955;-77
2022/09/15 05:58:33;;;;;;;;;27.00;26.50;;;;;;;;4999052;28;8953;-76
2022/09/15 06:01:06;;;;;;;;;25.50;24.50;;;;;;;;5001391;28;9013;-75
2022/09/15 06:03:34;;;;;;;;;32.67;31.00;;;;;;;;5005464;28;8871;-75
2022/09/15 06:06:02;;;;;;;;;29.67;29.67;;;;;;;;5002933;28;9121;-75
2022/09/15 06:08:34;;;;;;;;;38.50;29.75;;;;;;;;4997052;28;10231;-76
2022/09/15 06:11:03;;;;;;;;;40.67;31.67;;;;;;;;5004749;28;8848;-74
2022/09/15 06:13:32;;;;;;;;;21.67;19.00;;;;;;;;5003364;28;9057;-75
2022/09/15 06:16:04;;;;;;;;;27.00;25.67;;;;;;;;4998993;28;9076;-76
2022/09/15 06:18:32;;;;;;;;;29.33;27.67;;;;;;;;5002041;28;9131;-76
2022/09/15 06:21:06;;;;;;;;;27.00;26.67;;;;;;;;5003725;28;9033;-76
2022/09/15 06:23:34;;;;;;;;;26.00;25.00;;;;;;;;5003503;28;9046;-73
2022/09/15 06:26:09;;;;;;;;;26.67;24.00;;;;;;;;5003035;28;8983;-75
2022/09/15 06:28:41;;;;;;;;;30.00;28.33;;;;;;;;5004635;28;9046;-75
2022/09/15 06:31:11;;;;;;;;;31.00;29.00;;;;;;;;5002334;28;9007;-75
2022/09/15 06:33:41;;;;;;;;;22.00;21.33;;;;;;;;5003860;28;9037;-76
2022/09/15 06:36:09;;;;;;;;;25.75;25.25;;;;;;;;5003061;28;9971;-75
2022/09/15 06:38:36;;;;;;;;;28.67;28.33;;;;;;;;5003946;28;8867;-76
2022/09/15 06:41:03;;;;;;;;;29.67;26.67;;;;;;;;5002786;28;8988;-75
2022/09/15 06:43:31;;;;;;;;;25.50;25.00;;;;;;;;5001121;28;8996;-76
2022/09/15 06:46:04;;;;;;;;;27.00;27.00;;;;;;;;5003969;28;8894;-76
2022/09/15 06:48:32;;;;;;;;;27.75;26.50;;;;;;;;4999907;28;9511;-76
2022/09/15 06:51:00;;;;;;;;;28.67;25.00;;;;;;;;5002032;28;8864;-76
2022/09/15 06:53:29;;;;;;;;;37.00;32.33;;;;;;;;4998974;28;9024;-76
2022/09/15 06:56:01;;;;;;;;;44.33;35.67;;;;;;;;5002251;28;9133;-76
2022/09/15 06:58:28;;;;;;;;;28.75;25.00;;;;;;;;5000729;28;9612;-77
2022/09/15 07:00:55;;;;;;;;;28.75;27.75;;;;;;;;5001717;28;8835;-76
2022/09/15 07:03:24;;;;;;;;;25.00;23.00;;;;;;;;5003175;28;8914;-75
2022/09/15 07:05:51;;;;;;;;;33.25;29.00;;;;;;;;4991349;28;8987;-76
2022/09/15 07:08:19;;;;;;;;;29.25;23.25;;;;;;;;5002143;28;8890;-76
2022/09/15 07:10:46;;;;;;;;;30.25;27.50;;;;;;;;4993767;28;8868;-77
2022/09/15 07:13:13;;;;;;;;;26.25;25.50;;;;;;;;5002349;28;8868;-75
2022/09/15 07:15:42;;;;;;;;;31.75;27.50;;;;;;;;4991692;28;8896;-75
2022/09/15 07:18:09;;;;;;;;;28.00;22.50;;;;;;;;5004438;28;8907;-78
2022/09/15 07:20:40;;;;;;;;;30.50;27.75;;;;;;;;5002442;28;8903;-76
2022/09/15 07:23:08;;;;;;;;;31.33;28.33;;;;;;;;5001477;28;8919;-78
2022/09/15 07:25:35;;;;;;;;;28.75;27.00;;;;;;;;5001146;28;9108;-77
2022/09/15 07:28:02;;;;;;;;;28.50;23.25;;;;;;;;5001745;28;8856;-77
2022/09/15 07:30:30;;;;;;;;;29.00;23.00;;;;;;;;5001808;28;8825;-76
2022/09/15 07:33:00;;;;;;;;;28.75;24.25;;;;;;;;5002710;28;9046;-76
2022/09/15 07:35:27;;;;;;;;;23.25;21.25;;;;;;;;5001118;28;9835;-76
2022/09/15 07:37:56;;;;;;;;;30.00;26.00;;;;;;;;5002202;28;8864;-76
2022/09/15 07:40:23;;;;;;;;;24.25;23.75;;;;;;;;5001714;28;8877;-75
2022/09/15 07:42:51;;;;;;;;;22.75;22.50;;;;;;;;5001781;28;8887;-76
2022/09/15 07:45:18;;;;;;;;;26.50;23.25;;;;;;;;5001713;28;8933;-73
2022/09/15 07:47:45;;;;;;;;;24.50;24.50;;;;;;;;4984084;28;8876;-74
2022/09/15 07:50:13;;;;;;;;;22.50;21.75;;;;;;;;4999869;28;8986;-73
2022/09/15 07:52:40;;;;;;;;;23.75;23.50;;;;;;;;5003284;28;8864;-73
2022/09/15 07:55:09;;;;;;;;;25.00;23.50;;;;;;;;5004862;28;8858;-73
2022/09/15 07:57:37;;;;;;;;;23.00;23.00;;;;;;;;5001642;28;8914;-73
2022/09/15 08:00:05;;;;;;;;;22.25;19.25;;;;;;;;5002435;28;8962;-72
2022/09/15 08:02:32;;;;;;;;;19.75;19.75;;;;;;;;5001444;28;8872;-73
2022/09/15 08:05:00;;;;;;;;;19.75;16.25;;;;;;;;5003564;28;8880;-79
2022/09/15 08:07:27;;;;;;;;;19.25;18.75;;;;;;;;4998577;28;9597;-81
2022/09/15 08:09:54;;;;;;;;;21.00;16.75;;;;;;;;5002776;28;8880;-75
2022/09/15 08:12:23;;;;;;;;;25.75;22.75;;;;;;;;4997366;28;8879;-75
2022/09/15 08:14:50;;;;;;;;;15.75;15.75;;;;;;;;4999703;28;8868;-75
2022/09/15 08:17:17;;;;;;;;;18.50;16.75;;;;;;;;5003614;28;8882;-74
2022/09/15 08:19:44;;;;;;;;;15.75;15.25;;;;;;;;5001124;28;8906;-76
2022/09/15 08:22:12;;;;;;;;;18.50;13.75;;;;;;;;5000902;28;8868;-76
2022/09/15 08:24:40;;;;;;;;;14.00;12.25;;;;;;;;4999274;28;8876;-77
2022/09/15 08:27:07;;;;;;;;;15.25;10.25;;;;;;;;5001142;28;8901;-78
2022/09/15 08:29:37;;;;;;;;;11.75;10.50;;;;;;;;5001208;28;8897;-74
2022/09/15 08:32:04;;;;;;;;;16.25;11.00;;;;;;;;4996565;28;8839;-80
2022/09/15 08:34:31;;;;;;;;;8.00;7.50;;;;;;;;5018003;28;8873;-79
2022/09/15 08:36:59;;;;;;;;;10.00;10.00;;;;;;;;5001340;28;9591;-78
2022/09/15 08:39:27;;;;;;;;;13.00;11.50;;;;;;;;5002592;28;8902;-77
2022/09/15 08:41:54;;;;;;;;;10.25;10.25;;;;;;;;5005106;28;8901;-75
2022/09/15 08:44:31;;;;;;;;;13.40;10.20;;;;;;;;5006017;28;8878;-74
2022/09/15 08:47:04;;;;;;;;;7.00;7.00;;;;;;;;5005077;28;8883;-76
2022/09/15 08:49:37;;;;;;;;;6.40;6.40;;;;;;;;5004468;28;9628;-72
2022/09/15 08:52:07;;;;;;;;;7.60;7.60;;;;;;;;5007122;28;8943;-76
2022/09/15 08:54:34;;;;;;;;;9.00;9.00;;;;;;;;5004558;28;8886;-76
2022/09/15 08:57:04;;;;;;;;;5.00;5.00;;;;;;;;5006844;28;8890;-74
2022/09/15 08:59:34;;;;;;;;;7.60;7.00;;;;;;;;5004446;28;8917;-76
2022/09/15 09:02:23;;;;;;;;;6.60;5.20;;;;;;;;5005505;28;8811;-76
2022/09/15 09:05:05;;;;;;;;;8.20;7.00;;;;;;;;5003870;28;8918;-78
2022/09/15 09:07:53;;;;;;;;;7.00;7.00;;;;;;;;5003779;28;9009;-74
2022/09/15 09:10:25;;;;;;;;;6.20;6.20;;;;;;;;4997647;28;8922;-74
2022/09/15 09:13:02;;;;;;;;;5.80;4.20;;;;;;;;5004633;28;8896;-74
2022/09/15 09:15:41;;;;;;;;;3.00;3.00;;;;;;;;5005470;28;8877;-77
2022/09/15 09:18:38;;;;;;;;;3.60;3.60;;;;;;;;5008443;28;8931;-76
2022/09/15 09:21:12;;;;;;;;;5.20;4.00;;;;;;;;4994987;28;8887;-76
2022/09/15 09:23:43;;;;;;;;;4.60;4.60;;;;;;;;4997558;28;9691;-79
2022/09/15 09:26:12;;;;;;;;;4.40;4.00;;;;;;;;4998876;28;9068;-75
2022/09/15 09:28:44;;;;;;;;;5.60;4.40;;;;;;;;5002000;28;9654;-76
2022/09/15 09:31:20;;;;;;;;;3.20;3.20;;;;;;;;5000569;28;9688;-76
2022/09/15 09:33:53;;;;;;;;;5.80;4.00;;;;;;;;4998977;28;8887;-77
2022/09/15 09:36:21;;;;;;;;;9.20;5.80;;;;;;;;5001247;28;8890;-76
2022/09/15 09:38:49;;;;;;;;;4.20;4.20;;;;;;;;5004455;28;8959;-76
2022/09/15 09:41:18;;;;;;;;;3.40;3.40;;;;;;;;5002517;28;8890;-74
2022/09/15 09:43:48;;;;;;;;;3.80;3.80;;;;;;;;5004786;28;8894;-74
2022/09/15 09:46:16;;;;;;;;;5.80;4.00;;;;;;;;5003791;28;9107;-74
2022/09/15 09:48:48;;;;;;;;;4.00;4.00;;;;;;;;5004668;28;8866;-74
2022/09/15 09:51:36;;;;;;;;;4.00;4.00;;;;;;;;5010800;28;9713;-73
2022/09/15 09:54:12;;;;;;;;;2.60;2.60;;;;;;;;5005689;28;8893;-73
2022/09/15 09:56:39;;;;;;;;;6.00;5.00;;;;;;;;5001682;28;8878;-73
2022/09/15 09:59:38;;;;;;;;;4.00;4.00;;;;;;;;5005255;28;8925;-73
2022/09/15 10:02:17;;;;;;;;;4.00;4.00;;;;;;;;4998455;28;8814;-75
2022/09/15 10:04:45;;;;;;;;;5.40;3.00;;;;;;;;5004937;28;8871;-72
2022/09/15 10:07:16;;;;;;;;;6.20;3.20;;;;;;;;5005606;28;8887;-75
2022/09/15 10:09:53;;;;;;;;;3.00;3.00;;;;;;;;5005326;28;8948;-73
2022/09/15 10:12:24;;;;;;;;;4.00;4.00;;;;;;;;5004412;28;8902;-72
2022/09/15 10:14:53;;;;;;;;;2.00;2.00;;;;;;;;5005130;28;8867;-75
2022/09/15 10:17:22;;;;;;;;;4.00;3.80;;;;;;;;5004526;28;8909;-75
2022/09/15 10:19:52;;;;;;;;;3.20;3.20;;;;;;;;5004943;28;9248;-77
2022/09/15 10:22:41;;;;;;;;;2.20;2.20;;;;;;;;5003965;28;8875;-74
2022/09/15 10:25:30;;;;;;;;;2.80;2.80;;;;;;;;5001212;28;8890;-74
2022/09/15 10:28:12;;;;;;;;;5.00;4.00;;;;;;;;4997479;28;8866;-74
2022/09/15 10:30:41;;;;;;;;;4.80;4.80;;;;;;;;4998646;28;9756;-76
2022/09/15 10:33:20;;;;;;;;;4.00;4.00;;;;;;;;5004664;28;8905;-74
2022/09/15 10:35:47;;;;;;;;;4.00;4.00;;;;;;;;5004370;28;8886;-77
2022/09/15 10:38:21;;;;;;;;;4.00;4.00;;;;;;;;5004788;28;9017;-72
2022/09/15 10:40:53;;;;;;;;;4.00;4.00;;;;;;;;5005741;28;9021;-75
2022/09/15 10:43:32;;;;;;;;;6.20;5.00;;;;;;;;5002780;28;8858;-73
2022/09/15 10:46:04;;;;;;;;;8.20;8.20;;;;;;;;5004487;28;8862;-76
2022/09/15 10:48:43;;;;;;;;;8.60;7.00;;;;;;;;5034077;28;10185;-75
2022/09/15 10:51:24;;;;;;;;;5.40;5.40;;;;;;;;5004394;28;8890;-75
2022/09/15 10:54:14;;;;;;;;;9.20;8.40;;;;;;;;4997365;28;8893;-73
2022/09/15 10:56:44;;;;;;;;;8.40;8.40;;;;;;;;5002199;28;8951;-73
2022/09/15 10:59:26;;;;;;;;;6.00;6.00;;;;;;;;5004823;28;8874;-73
2022/09/15 11:02:20;;;;;;;;;7.80;7.80;;;;;;;;4994214;28;8799;-73
2022/09/15 11:05:19;;;;;;;;;5.40;5.20;;;;;;;;5002015;28;8924;-73
2022/09/15 11:07:54;;;;;;;;;6.00;6.00;;;;;;;;5001376;28;8874;-73
2022/09/15 11:10:34;;;;;;;;;5.00;5.00;;;;;;;;5004309;28;8890;-74
2022/09/15 11:13:09;;;;;;;;;6.80;6.80;;;;;;;;4993985;28;8893;-73
2022/09/15 11:15:49;;;;;;;;;4.80;4.80;;;;;;;;5004582;28;8867;-74
2022/09/15 11:18:31;;;;;;;;;6.20;6.20;;;;;;;;5004648;28;8894;-73
2022/09/15 11:21:28;;;;;;;;;8.00;8.00;;;;;;;;5002593;28;8879;-74
2022/09/15 11:24:18;;;;;;;;;9.80;8.00;;;;;;;;5004092;28;8878;-73
2022/09/15 11:26:51;;;;;;;;;6.40;6.40;;;;;;;;5002982;28;8882;-74
2022/09/15 11:29:22;;;;;;;;;7.60;7.20;;;;;;;;4995230;28;8922;-72
2022/09/15 11:31:52;;;;;;;;;9.00;7.00;;;;;;;;5002476;28;8854;-73
2022/09/15 11:34:23;;;;;;;;;5.80;5.80;;;;;;;;5004307;28;8878;-75
2022/09/15 11:36:55;;;;;;;;;6.60;6.00;;;;;;;;5003760;28;8862;-73
2022/09/15 11:39:24;;;;;;;;;7.20;7.20;;;;;;;;5003669;28;9010;-74
2022/09/15 11:41:56;;;;;;;;;9.00;9.00;;;;;;;;5000963;28;8878;-74
2022/09/15 11:44:27;;;;;;;;;7.80;7.80;;;;;;;;4997784;28;8879;-73
2022/09/15 11:47:06;;;;;;;;;7.00;7.00;;;;;;;;4993146;28;8940;-73
2022/09/15 11:49:39;;;;;;;;;5.80;5.80;;;;;;;;5002571;28;8882;-73
2022/09/15 11:52:14;;;;;;;;;5.40;5.40;;;;;;;;4992295;28;8897;-74
2022/09/15 11:54:46;;;;;;;;;7.20;6.00;;;;;;;;5001821;28;8878;-75
2022/09/15 11:57:20;;;;;;;;;5.00;5.00;;;;;;;;4996393;28;8890;-73
2022/09/15 11:59:54;;;;;;;;;6.40;6.40;;;;;;;;5003260;28;8902;-74
2022/09/15 12:02:28;;;;;;;;;6.20;5.00;;;;;;;;5001265;28;8873;-74
2022/09/15 12:05:06;;;;;;;;;8.80;7.40;;;;;;;;5002769;28;8890;-73
2022/09/15 12:07:37;;;;;;;;;6.60;5.00;;;;;;;;5002923;28;8879;-73
2022/09/15 12:10:12;;;;;;;;;3.40;3.40;;;;;;;;5002595;28;8882;-75
2022/09/15 12:12:41;;;;;;;;;7.40;6.80;;;;;;;;5002303;28;8888;-73
2022/09/15 12:15:15;;;;;;;;;5.80;5.80;;;;;;;;5001587;28;8886;-74
2022/09/15 12:17:47;;;;;;;;;10.60;7.80;;;;;;;;5003000;28;8972;-74
2022/09/15 12:20:20;;;;;;;;;6.60;6.60;;;;;;;;5002035;28;8883;-74
2022/09/15 12:22:51;;;;;;;;;7.60;5.80;;;;;;;;5002297;28;8866;-73
2022/09/15 12:25:24;;;;;;;;;3.60;3.60;;;;;;;;5002508;28;8908;-74
2022/09/15 12:28:28;;;;;;;;;7.80;7.00;;;;;;;;5001919;28;8878;-73
2022/09/15 12:31:24;;;;;;;;;3.80;3.80;;;;;;;;5000404;28;8806;-75
2022/09/15 12:33:56;;;;;;;;;7.00;6.00;;;;;;;;5002814;28;8985;-73
2022/09/15 12:36:43;;;;;;;;;5.20;5.20;;;;;;;;5000836;28;8904;-74
2022/09/15 12:39:24;;;;;;;;;5.40;5.00;;;;;;;;5003115;28;8874;-73
2022/09/15 12:41:53;;;;;;;;;6.80;5.60;;;;;;;;5002196;28;8866;-74
2022/09/15 12:44:28;;;;;;;;;5.80;4.80;;;;;;;;4995024;28;8886;-76
2022/09/15 12:46:59;;;;;;;;;4.20;4.20;;;;;;;;4990122;28;8874;-75
2022/09/15 12:49:31;;;;;;;;;6.00;6.00;;;;;;;;4999207;28;9763;-79
2022/09/15 12:52:04;;;;;;;;;5.20;5.20;;;;;;;;5002532;28;9639;-75
2022/09/15 12:54:33;;;;;;;;;7.00;7.00;;;;;;;;5001664;28;8851;-76
2022/09/15 12:57:01;;;;;;;;;3.20;3.20;;;;;;;;5002638;28;8890;-76
2022/09/15 12:59:30;;;;;;;;;4.40;4.40;;;;;;;;5002598;28;8874;-75
2022/09/15 13:02:00;;;;;;;;;4.80;4.80;;;;;;;;5000892;28;8851;-77
2022/09/15 13:04:52;;;;;;;;;5.60;5.00;;;;;;;;4997271;28;8882;-79
2022/09/15 13:07:38;;;;;;;;;5.20;5.00;;;;;;;;5000025;28;8921;-74
2022/09/15 13:10:30;;;;;;;;;4.00;3.00;;;;;;;;5002717;28;8886;-74
2022/09/15 13:13:23;;;;;;;;;4.40;4.40;;;;;;;;4973650;28;8890;-75
2022/09/15 13:15:51;;;;;;;;;3.80;3.80;;;;;;;;4998932;28;8922;-79
2022/09/15 13:18:21;;;;;;;;;4.00;3.40;;;;;;;;5005825;28;9605;-75
2022/09/15 13:20:53;;;;;;;;;4.80;3.80;;;;;;;;4993512;28;8905;-75
2022/09/15 13:23:24;;;;;;;;;6.00;4.00;;;;;;;;5001328;28;8867;-74
2022/09/15 13:25:56;;;;;;;;;3.20;3.20;;;;;;;;5003073;28;9632;-75
2022/09/15 13:28:23;;;;;;;;;3.80;3.80;;;;;;;;5004478;28;9656;-75
2022/09/15 13:31:04;;;;;;;;;4.60;4.60;;;;;;;;5011350;28;8812;-75
2022/09/15 13:33:49;;;;;;;;;5.80;5.80;;;;;;;;5024033;28;8867;-75
2022/09/15 13:36:26;;;;;;;;;3.60;3.60;;;;;;;;5024918;28;8950;-74
2022/09/15 13:39:16;;;;;;;;;4.20;2.80;;;;;;;;5021691;28;8879;-74
2022/09/15 13:41:55;;;;;;;;;3.00;3.00;;;;;;;;5024787;28;8888;-74
2022/09/15 13:45:00;;;;;;;;;3.80;3.80;;;;;;;;5028371;28;8910;-77
2022/09/15 13:47:34;;;;;;;;;1.60;1.60;;;;;;;;5025404;28;8860;-74
2022/09/15 13:50:13;;;;;;;;;2.60;2.60;;;;;;;;5016845;28;8913;-74
2022/09/15 13:53:05;;;;;;;;;2.60;2.60;;;;;;;;5025183;28;8865;-74
2022/09/15 13:55:37;;;;;;;;;6.40;3.20;;;;;;;;5008776;28;8860;-75
2022/09/15 13:58:04;;;;;;;;;2.60;2.60;;;;;;;;5017236;28;9002;-73
2022/09/15 14:00:34;;;;;;;;;6.60;4.60;;;;;;;;5025442;28;8773;-74
2022/09/15 14:03:04;;;;;;;;;4.40;4.40;;;;;;;;5017094;28;8864;-74
2022/09/15 14:05:35;;;;;;;;;5.40;4.20;;;;;;;;5025278;28;8892;-76
2022/09/15 14:08:04;;;;;;;;;4.60;4.60;;;;;;;;5022376;28;8983;-75
2022/09/15 14:10:35;;;;;;;;;7.00;4.60;;;;;;;;5023882;28;8871;-75
2022/09/15 14:13:03;;;;;;;;;3.80;3.80;;;;;;;;5021548;28;8836;-76
2022/09/15 14:15:33;;;;;;;;;5.00;5.00;;;;;;;;5023758;28;8877;-75
2022/09/15 14:18:04;;;;;;;;;5.40;4.40;;;;;;;;5024597;28;9753;-81
2022/09/15 14:20:33;;;;;;;;;3.60;3.60;;;;;;;;5022466;28;8869;-75
2022/09/15 14:23:00;;;;;;;;;5.40;3.80;;;;;;;;5024563;28;8931;-75
2022/09/15 14:25:29;;;;;;;;;4.20;4.20;;;;;;;;5023418;28;8916;-75
2022/09/15 14:27:57;;;;;;;;;3.60;3.60;;;;;;;;5024979;28;8852;-73
2022/09/15 14:30:26;;;;;;;;;5.40;5.40;;;;;;;;5014847;28;8899;-74
2022/09/15 14:32:56;;;;;;;;;5.20;5.20;;;;;;;;5024535;28;8882;-74
2022/09/15 14:35:26;;;;;;;;;6.40;5.00;;;;;;;;5011373;28;8875;-76
2022/09/15 14:37:57;;;;;;;;;5.00;5.00;;;;;;;;5021051;28;8887;-74
2022/09/15 14:40:28;;;;;;;;;5.60;5.60;;;;;;;;5022530;28;8879;-74
2022/09/15 14:42:56;;;;;;;;;6.80;6.80;;;;;;;;5024951;28;8894;-75
2022/09/15 14:45:25;;;;;;;;;4.80;4.80;;;;;;;;5021139;28;8891;-74
2022/09/15 14:48:11;;;;;;;;;4.00;4.00;;;;;;;;5022911;28;8856;-74
2022/09/15 14:50:39;;;;;;;;;4.60;4.60;;;;;;;;5023544;28;8879;-74
2022/09/15 14:53:12;;;;;;;;;5.40;5.40;;;;;;;;5017064;28;8853;-74
2022/09/15 14:55:47;;;;;;;;;3.00;3.00;;;;;;;;5022024;28;8879;-74
2022/09/15 14:58:18;;;;;;;;;3.80;3.80;;;;;;;;5024158;28;8856;-74
2022/09/15 15:00:53;;;;;;;;;5.60;4.20;;;;;;;;5021338;28;8838;-74
2022/09/15 15:03:29;;;;;;;;;5.80;5.80;;;;;;;;5017520;28;9434;-75
2022/09/15 15:06:01;;;;;;;;;6.00;6.00;;;;;;;;5024636;28;8856;-74
2022/09/15 15:08:34;;;;;;;;;5.80;4.80;;;;;;;;5022509;28;8899;-80
2022/09/15 15:11:01;;;;;;;;;6.00;6.00;;;;;;;;5023709;28;8872;-74